createdAt,value
2022-12-15T00:00:34.787Z,88.40
2022-12-15T00:05:34.672Z,81.30
2022-12-15T00:10:34.705Z,84.10
2022-12-15T00:15:34.683Z,88.70
2022-12-15T00:20:34.586Z,94.00
2022-12-15T00:25:34.452Z,77.50
2022-12-15T00:30:34.405Z,81.40
2022-12-15T00:35:34.395Z,78.30
2022-12-15T00:40:34.334Z,81.40
2022-12-15T00:45:34.283Z,77.60
2022-12-15T00:50:34.200Z,91.00
2022-12-15T00:55:34.263Z,75.90
2022-12-15T01:00:34.157Z,73.30
2022-12-15T01:05:34.141Z,70.30
2022-12-15T01:10:34.041Z,70.40
2022-12-15T01:15:33.944Z,78.50
2022-12-15T01:20:33.882Z,82.40
2022-12-15T01:25:33.863Z,79.10
2022-12-15T01:30:33.789Z,85.20
2022-12-15T01:35:33.776Z,75.70
2022-12-15T01:40:33.675Z,73.90
2022-12-15T01:45:33.616Z,70.10
2022-12-15T01:50:33.594Z,74.90
2022-12-15T01:55:33.538Z,72.30
2022-12-15T02:00:33.502Z,74.10
2022-12-15T02:05:33.411Z,68.30
2022-12-15T02:10:33.391Z,60.80
2022-12-15T02:15:34.346Z,62.40
2022-12-15T02:20:35.321Z,62.00
2022-12-15T02:25:34.327Z,58.80
2022-12-15T02:30:34.268Z,67.60
2022-12-15T02:35:33.106Z,59.50
2022-12-15T02:40:36.486Z,58.50
2022-12-15T02:45:33.154Z,62.50
2022-12-15T02:50:32.933Z,57.50
2022-12-15T02:55:32.908Z,63.20
2022-12-15T03:00:33.036Z,62.10
2022-12-15T03:05:32.758Z,63.20
2022-12-15T03:10:32.726Z,64.70
2022-12-15T03:15:35.585Z,51.90
2022-12-15T03:20:32.613Z,55.40
2022-12-15T03:25:32.569Z,55.70
2022-12-15T03:30:33.746Z,66.20
2022-12-15T03:35:32.547Z,56.50
2022-12-15T03:40:32.386Z,54.10
2022-12-15T03:45:32.469Z,58.40
2022-12-15T03:50:32.314Z,59.30
2022-12-15T03:55:32.379Z,59.60
2022-12-15T04:00:32.202Z,55.90
2022-12-15T04:05:32.140Z,55.00
2022-12-15T04:10:34.603Z,55.80
2022-12-15T04:15:32.069Z,52.10
2022-12-15T04:20:31.971Z,57.20
2022-12-15T04:25:31.959Z,54.40
2022-12-15T04:30:32.139Z,51.80
2022-12-15T04:35:32.033Z,54.40
2022-12-15T04:40:31.764Z,54.70
2022-12-15T04:45:31.752Z,49.50
2022-12-15T04:50:31.677Z,53.40
2022-12-15T04:55:31.608Z,56.90
2022-12-15T05:00:31.591Z,55.40
2022-12-15T05:05:31.522Z,53.40
2022-12-15T05:10:31.443Z,46.00
2022-12-15T05:15:31.441Z,57.20
2022-12-15T05:20:31.368Z,50.00
2022-12-15T05:25:31.295Z,50.00
2022-12-15T05:30:31.277Z,54.70
2022-12-15T05:35:31.221Z,52.30
2022-12-15T05:40:31.333Z,54.70
2022-12-15T05:45:31.111Z,49.10
2022-12-15T05:50:31.190Z,47.80
2022-12-15T05:55:31.156Z,56.00
2022-12-15T06:00:31.093Z,53.60
2022-12-15T06:05:30.910Z,59.00
2022-12-15T06:10:30.851Z,50.20
2022-12-15T06:15:30.921Z,53.80
2022-12-15T06:20:30.753Z,49.50
2022-12-15T06:25:30.691Z,58.80
2022-12-15T06:30:30.603Z,52.50
2022-12-15T06:35:30.553Z,57.00
2022-12-15T06:40:36.275Z,51.50
2022-12-15T06:45:31.489Z,51.20
2022-12-15T06:50:32.542Z,43.60
2022-12-15T06:55:30.360Z,46.60
2022-12-15T07:00:30.292Z,48.50
2022-12-15T07:05:31.405Z,53.40
2022-12-15T07:10:33.818Z,51.20
2022-12-15T07:15:30.162Z,56.70
2022-12-15T07:20:30.218Z,56.40
2022-12-15T07:25:30.070Z,50.00
2022-12-15T07:30:35.132Z,48.30
2022-12-15T07:35:31.078Z,51.20
2022-12-15T07:40:30.131Z,48.60
2022-12-15T07:45:30.071Z,47.90
2022-12-15T07:50:29.853Z,45.60
2022-12-15T07:55:57.149Z,53.30
2022-12-15T08:00:30.781Z,54.10
2022-12-15T08:05:29.680Z,54.90
2022-12-15T08:10:29.581Z,52.70
2022-12-15T08:15:29.542Z,57.60
2022-12-15T08:20:29.665Z,55.50
2022-12-15T08:25:31.656Z,51.90
2022-12-15T08:30:29.426Z,60.60
2022-12-15T08:35:55.046Z,49.90
2022-12-15T08:40:30.237Z,59.20
2022-12-15T08:45:29.262Z,59.70
2022-12-15T08:50:29.249Z,54.40
2022-12-15T08:55:29.207Z,56.30
2022-12-15T09:00:29.141Z,51.70
2022-12-15T09:05:29.048Z,57.90
2022-12-15T09:10:28.947Z,55.30
2022-12-15T09:15:59.794Z,55.90
2022-12-15T09:20:29.825Z,59.40
2022-12-15T09:25:29.851Z,65.60
2022-12-15T09:30:28.952Z,66.80
2022-12-15T09:35:28.802Z,63.70
2022-12-15T09:40:30.939Z,66.00
2022-12-15T09:45:29.727Z,68.20
2022-12-15T09:50:28.552Z,63.90
2022-12-15T09:55:28.520Z,68.20
2022-12-15T10:00:28.488Z,67.30
2022-12-15T10:05:50.048Z,71.70
2022-12-15T10:10:29.343Z,76.40
2022-12-15T10:15:28.448Z,83.60
2022-12-15T10:20:28.184Z,76.60
2022-12-15T10:30:29.353Z,85.50
2022-12-15T10:35:28.029Z,89.20
2022-12-15T10:40:27.978Z,73.40
2022-12-15T10:45:27.942Z,84.10
2022-12-15T10:50:27.879Z,77.60
2022-12-15T10:55:27.933Z,69.60
2022-12-15T11:00:29.910Z,73.10
2022-12-15T11:05:27.706Z,73.70
2022-12-15T11:10:27.847Z,70.80
2022-12-15T11:15:27.627Z,72.60
2022-12-15T11:20:27.657Z,67.90
2022-12-15T11:25:27.600Z,71.20
2022-12-15T11:30:27.440Z,63.20
2022-12-15T11:35:27.409Z,70.20
2022-12-15T11:40:27.430Z,67.70
2022-12-15T11:45:27.441Z,67.60
2022-12-15T11:50:28.296Z,65.60
2022-12-15T11:55:33.153Z,72.50
2022-12-15T12:00:29.268Z,71.00
2022-12-15T12:05:27.221Z,66.40
2022-12-15T12:10:27.009Z,65.10
2022-12-15T12:15:27.007Z,56.40
2022-12-15T12:20:26.936Z,57.50
2022-12-15T12:25:26.954Z,57.20
2022-12-15T12:30:26.901Z,57.40
2022-12-15T12:35:31.052Z,55.40
2022-12-15T12:40:27.727Z,54.20
2022-12-15T12:45:26.670Z,52.90
2022-12-15T12:50:26.589Z,54.50
2022-12-15T12:55:26.575Z,62.90
2022-12-15T13:00:26.550Z,57.50
2022-12-15T13:05:26.456Z,58.80
2022-12-15T13:10:26.410Z,57.70
2022-12-15T13:15:26.369Z,56.90
2022-12-15T13:20:26.279Z,56.70
2022-12-15T13:25:26.218Z,51.80
2022-12-15T13:30:26.177Z,57.20
2022-12-15T13:35:26.115Z,64.30
2022-12-15T13:40:26.034Z,57.70
2022-12-15T13:45:26.083Z,59.70
2022-12-15T13:50:26.000Z,52.40
2022-12-15T14:00:26.816Z,64.30
2022-12-15T14:05:25.805Z,62.70
2022-12-15T14:10:27.652Z,59.70
2022-12-15T14:15:25.830Z,52.40
2022-12-15T14:20:25.681Z,65.30
2022-12-15T14:25:25.762Z,63.20
2022-12-15T14:30:25.661Z,68.10
2022-12-15T14:35:25.713Z,61.60
2022-12-15T14:40:28.908Z,62.40
2022-12-15T14:45:25.607Z,61.70
2022-12-15T14:50:25.454Z,65.80
2022-12-15T14:55:25.241Z,94.00
2022-12-15T15:00:25.413Z,87.00
2022-12-15T15:03:09.545Z,82.10
2022-12-15T15:05:25.472Z,72.70
2022-12-15T15:10:25.278Z,71.10
2022-12-15T15:15:25.127Z,62.60
2022-12-15T15:20:25.094Z,70.60
2022-12-15T15:25:24.956Z,73.30
2022-12-15T15:31:59.837Z,66.40
2022-12-15T15:36:59.911Z,66.90
2022-12-15T15:41:59.780Z,88.40
2022-12-15T15:46:59.768Z,67.50
2022-12-15T15:51:59.633Z,77.20
2022-12-15T15:56:59.727Z,90.60
2022-12-15T16:01:59.860Z,90.60
2022-12-15T16:06:59.501Z,80.90
2022-12-15T16:12:00.715Z,76.20
2022-12-15T16:16:59.393Z,83.50
2022-12-15T16:21:59.356Z,81.20
2022-12-15T16:26:59.277Z,90.30
2022-12-15T16:32:22.685Z,92.80
2022-12-15T16:36:59.292Z,95.20
2022-12-15T16:41:59.240Z,108.20
2022-12-15T16:46:59.392Z,103.90
2022-12-15T16:52:00.297Z,101.40
2022-12-15T16:56:59.146Z,92.20
2022-12-15T17:01:59.237Z,99.70
2022-12-15T17:06:59.115Z,98.30
2022-12-15T17:11:59.113Z,87.80
2022-12-15T17:16:58.842Z,89.80
2022-12-15T17:21:58.912Z,88.80
2022-12-15T17:26:59.720Z,91.10
2022-12-15T17:31:58.813Z,89.70
2022-12-15T17:36:58.827Z,83.60
2022-12-15T17:47:41.728Z,92.60
2022-12-15T17:52:41.981Z,90.40
2022-12-15T18:39:16.733Z,116.10
2022-12-15T18:43:36.272Z,116.10
2022-12-15T18:48:36.267Z,100.30
2022-12-15T18:53:36.359Z,251.20
2022-12-15T18:58:36.117Z,109.50
2022-12-15T19:03:36.687Z,122.60
2022-12-15T19:08:36.075Z,131.60
2022-12-15T19:13:36.256Z,143.70
2022-12-15T19:18:35.848Z,139.70
2022-12-15T19:23:36.107Z,133.40
2022-12-15T19:28:35.800Z,113.60
2022-12-15T19:33:35.913Z,105.20
2022-12-15T19:38:35.698Z,112.20
2022-12-15T19:43:36.134Z,110.90
2022-12-15T19:48:35.663Z,104.00
2022-12-15T19:53:36.055Z,104.10
2022-12-15T19:58:35.485Z,110.00
2022-12-15T20:03:36.090Z,107.70
2022-12-15T20:08:35.451Z,111.10
2022-12-15T20:13:35.968Z,102.80
2022-12-15T20:18:35.737Z,101.00
2022-12-15T20:23:35.531Z,107.20
2022-12-15T20:28:35.245Z,96.20
2022-12-15T20:33:35.622Z,91.20
2022-12-15T20:38:35.131Z,97.10
2022-12-15T20:43:35.760Z,96.90
2022-12-15T20:48:35.046Z,103.00
2022-12-15T20:53:35.135Z,93.10
2022-12-15T20:58:38.701Z,97.90
2022-12-15T21:03:35.300Z,88.70
2022-12-15T21:08:34.762Z,100.50
2022-12-15T21:13:35.225Z,86.20
2022-12-15T21:28:35.720Z,92.50
2022-12-15T21:33:34.628Z,94.80
2022-12-15T21:38:35.057Z,88.60
2022-12-15T21:43:34.457Z,95.00
2022-12-15T21:48:35.004Z,84.90
2022-12-15T21:53:34.282Z,78.60
2022-12-15T21:58:34.491Z,75.90
2022-12-15T22:03:34.148Z,89.10
2022-12-15T22:08:34.902Z,92.40
2022-12-15T22:13:34.155Z,107.10
2022-12-15T22:18:34.853Z,89.30
2022-12-15T22:23:34.087Z,83.60
2022-12-15T22:28:34.591Z,88.90
2022-12-15T22:33:34.074Z,89.10
2022-12-15T23:02:10.772Z,79.70
2022-12-15T23:07:10.627Z,81.70
2022-12-15T23:12:10.629Z,75.60
2022-12-15T23:17:10.570Z,81.90
2022-12-15T23:22:10.486Z,75.90
2022-12-15T23:27:10.442Z,73.70
2022-12-15T23:32:10.449Z,73.40
2022-12-15T23:37:10.376Z,80.70
2022-12-15T23:42:10.378Z,75.90
2022-12-15T23:47:10.322Z,76.20
2022-12-15T23:52:10.307Z,70.80
2022-12-15T23:57:10.117Z,80.70
